x

Half Moon Bay - 24nm Ssw Of San Francisco, Ca (46012) Wave Buoy

12:50am - Wed 28th Jan 2015 All times are PST. -8 hours from GMT.

  • Sig Wave height 5.2ft
  • Swell Direction
  • Peak Period 14s
  • Average Period 10s
  • Wind
    4mph, 7mph gusts
  • Sea Temp 58°f
  • Air Temp 58°f
  • Sea Pressure 1023.3mb
  • Half Moon Bay - 24nm Ssw Of San Francisco, Ca
  • Half Moon Bay - 24nm Ssw Of San Francisco, Ca

More Historic Weather Station data

Upgrade to MSW Pro to gain access to the past 30 days of data for over 8000 Wavebouys and Weather Stations around the globe.

Join Pro

Comparision Forecast

View Surf forecast
   
Wed 01/28 12:50am 5ft 14s 10s 4 7 mph 1023.3mb 58f 58f
Tue 01/27 11:50pm 5.5ft 13s 10s 4 7 mph 1023.6mb 58f 58f
10:50pm 6.5ft 14s 10s 4 7 mph 1023.9mb 58f 58f
9:50pm 5ft 14s 9s 7 9 mph 1023.8mb 58f 58f
8:50pm 6ft 14s 10s 4 7 mph 1023.4mb 58f 59f
7:50pm 6ft 14s 10s 7 9 mph 1023mb 58f 59f
6:50pm 7ft 15s 10s 7 9 mph 1022.7mb 58f 59f
5:50pm 6.5ft 14s 10s 7 9 mph 1022.2mb 58f 59f
4:50pm 5.5ft 15s 9s 9 11 mph 1022.1mb 58f 59f
3:50pm 6ft 14s 9s 7 9 mph 1022.2mb 58f 59f
2:50pm 6ft 15s 8s 7 9 mph 1022.4mb 58f 59f
1:50pm 6ft 14s 8s 11 13 mph 1021.8mb 58f 60f
12:50pm 6ft 13s 8s 13 16 mph 1022mb 58f 60f
11:50am 6ft 14s 7s 16 18 mph 1022.3mb 58f 60f
10:50am 6ft 13s 7s 16 20 mph 1022mb 58f 59f
9:50am 7ft 14s 8s 16 20 mph 1021.5mb 58f 60f
8:50am 6.5ft 14s 7s 16 20 mph 1020.8mb 58f 59f
7:50am 6ft 12s 8s 18 22 mph 1019.9mb 58f 59f
6:50am 6ft 14s 9s 16 18 mph 1019.2mb 58f 59f
5:50am 6ft 14s 9s 16 20 mph 1018.4mb 58f 59f
4:50am 6ft 14s 10s 16 20 mph 1017.8mb 58f 59f
3:50am 6.5ft 14s 10s 9 11 mph 1017.6mb 58f 59f
2:50am 7ft 14s 12s 13 16 mph 1017mb 58f 59f
1:50am 6ft 14s 11s 11 13 mph 1017mb 58f 58f
12:50am 7ft 13s 11s 9 11 mph 1016.2mb 58f 58f
Mon 01/26 11:50pm 6.5ft 14s 12s 7 9 mph 1015.5mb 58f 58f
10:50pm 7ft 13s 12s 4 7 mph 1015mb 58f 58f
9:50pm 7ft 14s 11s 2 4 mph 1014.1mb 58f 58f
8:50pm 7ft 15s 11s 2 4 mph 1014.6mb 58f 58f
7:50pm 7.5ft 15s 11s 4 7 mph 1014.5mb 58f 58f
6:50pm 7ft 15s 11s 9
mph
1014.2mb 58f 59f
5:50pm 7.5ft 15s 11s 7 9 mph 1013.8mb 58f 59f
4:50pm 7.5ft 15s 11s 4 7 mph 1013.9mb 58f 58f
3:50pm 7ft 14s 11s 4 7 mph 1013.7mb 58f 59f
2:50pm 7ft 14s 11s 7 9 mph 1013.5mb 58f 58f
1:50pm 7ft 14s 10s 4
mph
1013.7mb 58f 58f
12:50pm 7ft 15s 9s 4 7 mph 1014.5mb 58f 58f
11:50am 6.5ft 13s 9s 9 11 mph 1015.3mb 58f 57f
10:50am 7ft 14s 9s 7 9 mph 1015.9mb 58f 57f
9:50am 6ft 15s 9s 9 11 mph 1015.6mb 58f 57f
8:50am 7ft 13s 10s 4 7 mph 1015.6mb 58f 58f
7:50am 6.5ft 13s 10s 4 7 mph 1014.9mb 58f 58f
6:50am 6.5ft 16s 11s 4
mph
1015mb 58f 58f
5:50am 6.5ft 13s 11s 4 7 mph 1014.6mb 58f 58f
4:50am 5.5ft 14s 11s 2 7 mph 1014.7mb 58f 58f
3:50am 6ft 12s 11s 2
mph
1015mb 58f 60f
2:50am 6.5ft 13s 11s  -  4 mph 1015.5mb 58f 60f
1:50am 6ft 15s 11s 2 4 mph 1015.8mb 58f 58f
12:50am 6ft 12s 11s  -  2 mph 1016.2mb 58f 58f
Sun 01/25 11:50pm 6.5ft 13s 11s 4
mph
1016.4mb 58f 59f
10:50pm 6ft 14s 11s 4 7 mph 1016.4mb 58f 59f
9:50pm 6ft 12s 10s 2 4 mph 1016.2mb 58f 59f
8:50pm 6ft 14s 10s 2 4 mph 1015.9mb 58f 60f
7:50pm 6ft 12s 10s 4
mph
1015.6mb 58f 60f
6:50pm 7ft 14s 10s 4
mph
1015.5mb 58f 60f
5:50pm 6.5ft 13s 10s 7
mph
1014.9mb 58f 61f
4:50pm 7ft 13s 10s 7 9 mph 1014.8mb 58f 61f
3:50pm 7ft 14s 9s 9 11 mph 1014.9mb 58f 60f
2:50pm 7ft 16s 9s 9 11 mph 1015.3mb 58f 59f
1:50pm 7ft 14s 9s 9 11 mph 1015.5mb 58f 59f
12:50pm 8ft 15s 9s 9 13 mph 1016.5mb 58f 58f
11:50am 7ft 15s 9s 11 13 mph 1017.5mb 58f 58f
10:50am 7ft 15s 9s 11 13 mph 1018.1mb 58f 57f
9:50am 7ft 16s 9s 9 11 mph 1018.2mb 58f 58f
8:50am 7.5ft 14s 10s 9 11 mph 1018mb 58f 58f
7:50am 8ft 15s 10s 7 9 mph 1018mb 58f 58f
6:50am 8ft 14s 10s 7 9 mph 1018mb 58f 58f
5:50am 7.5ft 15s 10s 2 4 mph 1017.9mb 58f 58f
4:50am 8ft 15s 10s  -  2 mph 1017.8mb 58f 58f
3:50am 7.5ft 13s 10s 11 13 mph 1018.1mb 58f 57f
2:50am 8ft 16s 11s 13 16 mph 1018.1mb 58f 57f
1:50am 8ft 15s 11s 9 11 mph 1018.4mb 58f 59f
12:50am 9.5ft 15s 12s 9 11 mph 1018.3mb 58f 60f
Sat 01/24 11:50pm 9ft 15s 11s 9 11 mph 1018.8mb 58f 58f
10:50pm 9ft 16s 11s 4 7 mph 1019.1mb 58f 58f
9:50pm 8ft 16s 10s 7 9 mph 1018.9mb 58f 58f
8:50pm 9ft 14s 11s 9
mph
1018.9mb 58f 58f
7:50pm 10ft 16s 11s 7 11 mph 1018.9mb 58f 59f
6:50pm 9ft 16s 11s 7 9 mph 1018.5mb 58f 59f
5:50pm 10ft 16s 11s 11 13 mph 1018.3mb 58f 59f
4:50pm 9ft 16s 11s 7 9 mph 1018.3mb 58f 60f
3:50pm 11ft 16s 11s 11 13 mph 1018.4mb 58f 59f
2:50pm 9.5ft 16s 11s 2 7 mph 1018.8mb 58f 60f
1:50pm 9ft 16s 10s 4 9 mph 1019.2mb 58f 60f
12:50pm 10ft 15s 11s 7 11 mph 1020.1mb 58f 60f
11:50am 10ft 16s 10s 7 9 mph 1021.4mb 58f 60f
10:50am 11ft 17s 11s 11 13 mph 1021.7mb 58f 60f